Nearby METAR Reports

Meteorological Terminal Air Report (METAR)

K3I2 - Pt Pleasant, West Virginia, USA
Distance from station: S 11mi, 18km
Updated: Sat, 22-Feb-2020 1:55pm EST
Clear
Clear
 Wind from S
Wind: S 13 mph , 20 km/h
Temperature: 50°F , 10°C
Wind Chill: 45°F , 7°C
Dew Point: 16°F , -9°C
Humidity: 25%
Barometer: 30.37 inHg , 1028.4 hPa
Clouds: Clear
Visibility: 10 miles , 16 km
2020/02/22 18:55 K3I2 221855Z AUTO 19011KT 10SM CLR 10/M09 A3037 RMK AO2 T00961089
KUNI - Athens, Ohio, USA
Distance from station: NW 13mi, 21km
Updated: Sat, 22-Feb-2020 1:55pm EST
Clear
Clear
 Wind from SW
Wind: SW 7 mph , 11 km/h
Temperature: 46°F , 8°C
Wind Chill: 42°F , 6°C
Dew Point: 12°F , -11°C
Humidity: 25%
Barometer: 30.34 inHg , 1027.4 hPa
Clouds: Clear
Visibility: 10 miles , 16 km
2020/02/22 18:55 KUNI 221855Z AUTO 23006KT 10SM CLR 08/M11 A3034 RMK AO2 T00791113
 
KPKB - Parkersburg, West Virginia, USA
Distance from station: ENE 40mi, 65km
Updated: Sat, 22-Feb-2020 1:53pm EST
Clear
Clear
 Wind from S
Wind: S 8 mph , 13 km/h
Temperature: 46°F , 8°C
Wind Chill: 42°F , 6°C
Dew Point: 9°F , -13°C
Humidity: 21%
Barometer: 30.34 inHg , 1027.4 hPa
Clouds: Clear
Visibility: 10 miles , 16 km
2020/02/22 18:53 KPKB 221853Z 18007KT 150V230 10SM CLR 08/M13 A3034 RMK AO2 SLP280 T00781128
KCRW - Charleston, West Virginia, USA
Distance from station: SSE 55mi, 88km
Updated: Sat, 22-Feb-2020 1:54pm EST
Clear
Clear
 Wind from SSW
Wind: SSW 5 mph , 7 km/h
Temperature: 45°F , 7°C
Wind Chill: 42°F , 6°C
Dew Point: 7°F , -14°C
Humidity: 21%
Barometer: 30.36 inHg , 1028.1 hPa
Clouds: Clear
Visibility: 10 miles , 16 km
2020/02/22 18:54 KCRW 221854Z 20004KT 10SM CLR 07/M14 A3036 RMK AO2 SLP288 T00721139
 
KHTS - Huntington, West Virginia, USA
Distance from station: SSW 55mi, 89km
Updated: Sat, 22-Feb-2020 1:51pm EST
Clear
Clear
 Wind from S
Wind: S 8 mph , 13 km/h
Temperature: 46°F , 8°C
Wind Chill: 42°F , 6°C
Dew Point: 12°F , -11°C
Humidity: 25%
Barometer: 30.36 inHg , 1028.1 hPa
Clouds: Clear
Visibility: 10 miles , 16 km
2020/02/22 18:51 KHTS 221851Z 18007KT 160V230 10SM CLR 08/M11 A3036 RMK AO2 SLP288 T00781111
KLHQ - Lancaster, Ohio, USA
Distance from station: NW 56mi, 91km
Updated: Sat, 22-Feb-2020 1:53pm EST
Clear
Clear
 Wind from SW
Wind: SW 12 mph , 19 km/h
Temperature: 45°F , 7°C
Wind Chill: 39°F , 4°C
Dew Point: 18°F , -8°C
Humidity: 34%
Barometer: 30.32 inHg , 1026.8 hPa
Clouds: Clear
Visibility: 10 miles , 16 km
2020/02/22 18:53 KLHQ 221853Z AUTO 22010KT 10SM CLR 07/M08 A3032 RMK AO2 SLP276 T00721083
 
KZZV - Zanesville, Ohio, USA
Distance from station: N 61mi, 99km
Updated: Sat, 22-Feb-2020 1:53pm EST
Clear
Clear
 Wind from WSW
Wind: WSW 8 mph , 13 km/h
Temperature: 46°F , 8°C
Wind Chill: 42°F , 6°C
Dew Point: 12°F , -11°C
Humidity: 25%
Barometer: 30.31 inHg , 1026.4 hPa
Clouds: Clear
Visibility: 10 miles , 16 km
2020/02/22 18:53 KZZV 221853Z AUTO 25007KT 10SM CLR 08/M11 A3031 RMK AO2 SLP272 T00781111
KLCK - Rickenbacker Ang, Ohio, USA
Distance from station: NW 68mi, 110km
Updated: Sat, 22-Feb-2020 1:55pm EST
Clear
Clear
 Wind from SSW
Wind: SSW 15 mph , 24 km/h, Gust: 20 mph , 31 km/h
Temperature: 45°F , 7°C
Wind Chill: 38°F , 3°C
Dew Point: 16°F , -9°C
Humidity: 31%
Barometer: 30.32 inHg , 1026.8 hPa
Clouds: Clear
Visibility: 10 miles , 16 km
2020/02/22 18:55 KLCK 221855Z AUTO 21013G17KT 10SM CLR 07/M09 A3032 RMK AO2 T00711086
 
KVTA - Newark, Ohio, USA
Distance from station: NNW 68mi, 110km
Updated: Sat, 22-Feb-2020 1:54pm EST
Clear
Clear
 Wind from SSW
Wind: SSW 12 mph , 19 km/h, Gust: 23 mph , 37 km/h
Temperature: 45°F , 7°C
Wind Chill: 39°F , 4°C
Dew Point: 19°F , -7°C
Humidity: 37%
Barometer: 30.30 inHg , 1026.1 hPa
Clouds: Clear
Visibility: 10 miles , 16 km
2020/02/22 18:54 KVTA 221854Z AUTO 21010G20KT 10SM CLR 07/M07 A3030 RMK AO2 SLP268 T00721072